sensor_id;sensor_type;location;lat;lon;timestamp;pressure;altitude;pressure_sealevel;temperature;humidity
67377;BME280;54261;46.086;6.588;2022-11-23T00:04:46;91298.13;;;3.99;43.56
67377;BME280;54261;46.086;6.588;2022-11-23T00:09:48;91280.47;;;3.04;44.31
67377;BME280;54261;46.086;6.588;2022-11-23T00:14:50;91283.91;;;3.04;44.03
67377;BME280;54261;46.086;6.588;2022-11-23T00:19:52;91292.88;;;3.31;44.84
67377;BME280;54261;46.086;6.588;2022-11-23T00:24:54;91303.09;;;3.69;43.73
67377;BME280;54261;46.086;6.588;2022-11-23T00:29:56;91298.53;;;3.61;43.20
67377;BME280;54261;46.086;6.588;2022-11-23T00:34:58;91297.59;;;3.89;42.73
67377;BME280;54261;46.086;6.588;2022-11-23T00:39:59;91262.91;;;2.43;45.31
67377;BME280;54261;46.086;6.588;2022-11-23T00:45:02;91267.53;;;2.51;45.30
67377;BME280;54261;46.086;6.588;2022-11-23T00:50:04;91289.63;;;3.57;44.14
67377;BME280;54261;46.086;6.588;2022-11-23T00:55:07;91293.69;;;3.86;43.94
67377;BME280;54261;46.086;6.588;2022-11-23T01:00:09;91307.28;;;3.02;44.04
67377;BME280;54261;46.086;6.588;2022-11-23T01:05:14;91286.38;;;3.00;44.47
67377;BME280;54261;46.086;6.588;2022-11-23T01:10:16;91286.94;;;2.61;44.59
67377;BME280;54261;46.086;6.588;2022-11-23T01:15:18;91278.09;;;3.02;45.06
67377;BME280;54261;46.086;6.588;2022-11-23T01:20:20;91271.03;;;3.34;44.53
67377;BME280;54261;46.086;6.588;2022-11-23T01:25:22;91276.94;;;3.31;43.47
67377;BME280;54261;46.086;6.588;2022-11-23T01:30:24;91263.72;;;3.63;43.28
67377;BME280;54261;46.086;6.588;2022-11-23T01:35:26;91270.53;;;3.55;42.50
67377;BME280;54261;46.086;6.588;2022-11-23T01:40:29;91256.34;;;3.82;42.52
67377;BME280;54261;46.086;6.588;2022-11-23T01:46:17;91270.72;;;3.58;42.50
67377;BME280;54261;46.086;6.588;2022-11-23T01:51:03;91270.84;;;2.01;44.44
67377;BME280;54261;46.086;6.588;2022-11-23T01:56:14;91272.16;;;2.96;43.83
67377;BME280;54261;46.086;6.588;2022-11-23T02:01:18;91275.97;;;2.53;44.23
67377;BME280;54261;46.086;6.588;2022-11-23T02:06:22;91282.06;;;1.65;45.57
67377;BME280;54261;46.086;6.588;2022-11-23T02:11:24;91282.44;;;2.33;45.18
67377;BME280;54261;46.086;6.588;2022-11-23T02:16:26;91283.88;;;2.67;43.58
67377;BME280;54261;46.086;6.588;2022-11-23T02:21:28;91259.22;;;2.81;43.96
67377;BME280;54261;46.086;6.588;2022-11-23T02:26:33;91260.59;;;-0.06;48.15
67377;BME280;54261;46.086;6.588;2022-11-23T02:31:38;91267.72;;;1.18;45.84
67377;BME280;54261;46.086;6.588;2022-11-23T02:36:48;91225.75;;;1.92;44.96
67377;BME280;54261;46.086;6.588;2022-11-23T02:41:52;91267.56;;;2.74;43.76
67377;BME280;54261;46.086;6.588;2022-11-23T02:46:56;91262.66;;;2.81;43.10
67377;BME280;54261;46.086;6.588;2022-11-23T02:51:58;91252.00;;;3.32;42.67
67377;BME280;54261;46.086;6.588;2022-11-23T02:57:00;91198.28;;;2.16;43.01
67377;BME280;54261;46.086;6.588;2022-11-23T03:02:03;91239.03;;;2.71;42.33
67377;BME280;54261;46.086;6.588;2022-11-23T03:07:06;91229.19;;;1.93;43.68
67377;BME280;54261;46.086;6.588;2022-11-23T03:12:09;91161.19;;;2.44;43.67
67377;BME280;54261;46.086;6.588;2022-11-23T03:17:12;91197.09;;;2.50;43.86
67377;BME280;54261;46.086;6.588;2022-11-23T03:22:15;91212.03;;;-0.05;47.61
67377;BME280;54261;46.086;6.588;2022-11-23T03:27:17;91202.91;;;-0.38;48.39
67377;BME280;54261;46.086;6.588;2022-11-23T03:32:20;91207.75;;;0.23;47.09
67377;BME280;54261;46.086;6.588;2022-11-23T03:37:26;91211.41;;;1.18;45.20
67377;BME280;54261;46.086;6.588;2022-11-23T03:42:29;91186.72;;;0.37;45.26
67377;BME280;54261;46.086;6.588;2022-11-23T03:47:31;91177.88;;;0.66;46.16
67377;BME280;54261;46.086;6.588;2022-11-23T03:52:33;91144.91;;;1.86;44.98
67377;BME280;54261;46.086;6.588;2022-11-23T03:57:35;91165.69;;;0.84;44.53
67377;BME280;54261;46.086;6.588;2022-11-23T04:02:39;91156.06;;;0.94;46.02
67377;BME280;54261;46.086;6.588;2022-11-23T04:08:00;91148.44;;;1.06;45.88
67377;BME280;54261;46.086;6.588;2022-11-23T04:13:03;91145.41;;;2.76;43.40
67377;BME280;54261;46.086;6.588;2022-11-23T04:18:05;91139.09;;;2.12;43.87
67377;BME280;54261;46.086;6.588;2022-11-23T04:23:08;91094.59;;;2.00;43.12
67377;BME280;54261;46.086;6.588;2022-11-23T04:28:15;91096.50;;;1.71;43.83
67377;BME280;54261;46.086;6.588;2022-11-23T04:33:18;91110.13;;;1.51;44.38
67377;BME280;54261;46.086;6.588;2022-11-23T04:38:20;91063.56;;;0.94;44.51
67377;BME280;54261;46.086;6.588;2022-11-23T04:43:22;91105.09;;;0.22;46.48
67377;BME280;54261;46.086;6.588;2022-11-23T04:48:24;91121.47;;;1.23;44.38
67377;BME280;54261;46.086;6.588;2022-11-23T04:53:28;91109.25;;;0.09;46.29
67377;BME280;54261;46.086;6.588;2022-11-23T04:58:30;91073.38;;;-0.12;45.42
67377;BME280;54261;46.086;6.588;2022-11-23T05:03:35;91134.31;;;1.58;43.93
67377;BME280;54261;46.086;6.588;2022-11-23T05:08:41;91143.63;;;1.69;43.26
67377;BME280;54261;46.086;6.588;2022-11-23T05:13:56;91167.91;;;2.64;42.52
67377;BME280;54261;46.086;6.588;2022-11-23T05:18:58;91172.31;;;3.14;41.33
67377;BME280;54261;46.086;6.588;2022-11-23T05:24:01;91162.09;;;2.76;41.62
67377;BME280;54261;46.086;6.588;2022-11-23T05:29:04;91145.09;;;2.40;41.12
67377;BME280;54261;46.086;6.588;2022-11-23T05:34:06;91150.22;;;2.37;41.65
67377;BME280;54261;46.086;6.588;2022-11-23T05:39:17;91158.88;;;2.42;41.27
67377;BME280;54261;46.086;6.588;2022-11-23T05:44:22;91185.81;;;2.30;41.68
67377;BME280;54261;46.086;6.588;2022-11-23T05:49:25;91172.44;;;1.57;42.64
67377;BME280;54261;46.086;6.588;2022-11-23T05:54:27;91168.88;;;1.48;44.12
67377;BME280;54261;46.086;6.588;2022-11-23T05:59:40;91172.25;;;1.06;43.24
67377;BME280;54261;46.086;6.588;2022-11-23T06:04:47;91160.22;;;0.81;44.89
67377;BME280;54261;46.086;6.588;2022-11-23T06:09:54;91151.06;;;1.39;43.95
67377;BME280;54261;46.086;6.588;2022-11-23T06:14:56;91165.06;;;2.10;42.58
67377;BME280;54261;46.086;6.588;2022-11-23T06:19:59;91142.91;;;2.06;42.30
67377;BME280;54261;46.086;6.588;2022-11-23T06:25:02;91157.44;;;1.80;42.64
67377;BME280;54261;46.086;6.588;2022-11-23T06:30:04;91185.16;;;1.69;43.84
67377;BME280;54261;46.086;6.588;2022-11-23T06:35:07;91141.28;;;2.33;42.13
67377;BME280;54261;46.086;6.588;2022-11-23T06:40:13;91183.06;;;2.36;42.01
67377;BME280;54261;46.086;6.588;2022-11-23T06:45:16;91181.19;;;1.38;42.86
67377;BME280;54261;46.086;6.588;2022-11-23T06:50:21;91193.00;;;1.46;42.55
67377;BME280;54261;46.086;6.588;2022-11-23T06:55:24;91171.75;;;-0.11;44.47
67377;BME280;54261;46.086;6.588;2022-11-23T07:00:27;91189.19;;;2.22;41.68
67377;BME280;54261;46.086;6.588;2022-11-23T07:05:30;91200.56;;;1.95;41.33
67377;BME280;54261;46.086;6.588;2022-11-23T07:10:34;91212.03;;;0.96;42.61
67377;BME280;54261;46.086;6.588;2022-11-23T07:15:37;91233.41;;;0.61;43.25
67377;BME280;54261;46.086;6.588;2022-11-23T07:20:40;91234.94;;;1.20;43.31
67377;BME280;54261;46.086;6.588;2022-11-23T07:25:42;91186.47;;;0.14;44.67
67377;BME280;54261;46.086;6.588;2022-11-23T07:30:44;91183.03;;;1.85;41.09
67377;BME280;54261;46.086;6.588;2022-11-23T07:35:48;91186.94;;;1.73;40.90
67377;BME280;54261;46.086;6.588;2022-11-23T07:40:50;91227.59;;;2.20;40.79
67377;BME280;54261;46.086;6.588;2022-11-23T07:46:21;91201.50;;;2.55;41.32
67377;BME280;54261;46.086;6.588;2022-11-23T07:51:23;91224.56;;;3.14;40.18
67377;BME280;54261;46.086;6.588;2022-11-23T07:56:25;91209.53;;;0.28;41.67
67377;BME280;54261;46.086;6.588;2022-11-23T08:01:28;91227.91;;;2.18;40.14
67377;BME280;54261;46.086;6.588;2022-11-23T08:06:32;91237.63;;;1.81;40.72
67377;BME280;54261;46.086;6.588;2022-11-23T08:11:34;91217.28;;;2.60;40.67
67377;BME280;54261;46.086;6.588;2022-11-23T08:16:36;91235.81;;;2.97;39.91
67377;BME280;54261;46.086;6.588;2022-11-23T08:21:38;91248.34;;;3.74;39.64
67377;BME280;54261;46.086;6.588;2022-11-23T08:26:40;91245.25;;;3.03;40.68
67377;BME280;54261;46.086;6.588;2022-11-23T08:31:42;91234.34;;;2.40;41.25
67377;BME280;54261;46.086;6.588;2022-11-23T08:36:44;91241.81;;;2.89;40.25
67377;BME280;54261;46.086;6.588;2022-11-23T08:41:46;91258.03;;;2.50;41.98
67377;BME280;54261;46.086;6.588;2022-11-23T08:46:48;91247.94;;;1.16;43.41
67377;BME280;54261;46.086;6.588;2022-11-23T08:51:51;91260.72;;;1.89;42.35
67377;BME280;54261;46.086;6.588;2022-11-23T08:56:53;91263.59;;;2.63;41.27
67377;BME280;54261;46.086;6.588;2022-11-23T09:01:55;91261.47;;;2.87;42.29
67377;BME280;54261;46.086;6.588;2022-11-23T09:06:57;91267.00;;;2.77;40.04
67377;BME280;54261;46.086;6.588;2022-11-23T09:11:59;91261.38;;;2.93;40.89
67377;BME280;54261;46.086;6.588;2022-11-23T09:17:02;91274.38;;;2.66;40.60
67377;BME280;54261;46.086;6.588;2022-11-23T09:22:04;91274.31;;;3.63;38.52
67377;BME280;54261;46.086;6.588;2022-11-23T09:27:06;91270.47;;;4.90;36.87
67377;BME280;54261;46.086;6.588;2022-11-23T09:32:09;91277.88;;;4.04;36.10
67377;BME280;54261;46.086;6.588;2022-11-23T09:37:12;91257.47;;;4.22;37.30
67377;BME280;54261;46.086;6.588;2022-11-23T09:47:48;91286.03;;;6.06;36.74
67377;BME280;54261;46.086;6.588;2022-11-23T09:52:53;91284.56;;;6.27;36.71
67377;BME280;54261;46.086;6.588;2022-11-23T09:58:00;91254.66;;;6.60;36.26
67377;BME280;54261;46.086;6.588;2022-11-23T10:03:03;91273.91;;;6.27;35.93
67377;BME280;54261;46.086;6.588;2022-11-23T10:08:25;91254.50;;;2.41;44.74
67377;BME280;54261;46.086;6.588;2022-11-23T10:13:44;91265.09;;;3.14;43.83
67377;BME280;54261;46.086;6.588;2022-11-23T10:18:57;91267.84;;;4.41;40.79
67377;BME280;54261;46.086;6.588;2022-11-23T10:24:16;91244.34;;;5.63;39.74
67377;BME280;54261;46.086;6.588;2022-11-23T10:29:28;91267.63;;;6.31;38.37
67377;BME280;54261;46.086;6.588;2022-11-23T10:34:45;91267.84;;;6.08;39.49
67377;BME280;54261;46.086;6.588;2022-11-23T10:39:49;91276.88;;;6.73;39.33
67377;BME280;54261;46.086;6.588;2022-11-23T10:44:53;91215.59;;;4.19;41.63
67377;BME280;54261;46.086;6.588;2022-11-23T10:49:57;91236.00;;;4.50;41.88
67377;BME280;54261;46.086;6.588;2022-11-23T10:55:02;91270.72;;;6.42;39.65
67377;BME280;54261;46.086;6.588;2022-11-23T11:11:01;91258.69;;;6.36;36.38
67377;BME280;54261;46.086;6.588;2022-11-23T11:16:09;91258.44;;;7.10;36.04
67377;BME280;54261;46.086;6.588;2022-11-23T11:26:33;91230.25;;;2.62;38.78
67377;BME280;54261;46.086;6.588;2022-11-23T11:42:39;91232.44;;;4.98;32.98
67377;BME280;54261;46.086;6.588;2022-11-23T11:53:27;91238.97;;;5.80;34.67
67377;BME280;54261;46.086;6.588;2022-11-23T11:58:36;91235.41;;;5.32;35.61
67377;BME280;54261;46.086;6.588;2022-11-23T12:03:53;91258.41;;;6.20;34.30
67377;BME280;54261;46.086;6.588;2022-11-23T12:09:02;91230.94;;;7.18;33.99
67377;BME280;54261;46.086;6.588;2022-11-23T12:14:11;91255.50;;;7.66;33.32
67377;BME280;54261;46.086;6.588;2022-11-23T12:19:23;91254.03;;;8.03;32.43
67377;BME280;54261;46.086;6.588;2022-11-23T13:02:02;91257.34;;;7.11;37.40
67377;BME280;54261;46.086;6.588;2022-11-23T13:07:30;91246.88;;;7.27;37.32
67377;BME280;54261;46.086;6.588;2022-11-23T13:23:38;91247.66;;;7.61;37.57
67377;BME280;54261;46.086;6.588;2022-11-23T13:28:41;91258.56;;;6.92;37.48
67377;BME280;54261;46.086;6.588;2022-11-23T13:33:45;91240.22;;;8.01;36.01
67377;BME280;54261;46.086;6.588;2022-11-23T13:38:48;91275.78;;;8.14;37.30
67377;BME280;54261;46.086;6.588;2022-11-23T13:43:50;91266.22;;;8.38;37.11
67377;BME280;54261;46.086;6.588;2022-11-23T13:48:54;91275.34;;;8.24;37.82
67377;BME280;54261;46.086;6.588;2022-11-23T13:53:59;91303.03;;;7.94;38.35
67377;BME280;54261;46.086;6.588;2022-11-23T14:04:25;91288.75;;;7.90;39.19
67377;BME280;54261;46.086;6.588;2022-11-23T14:10:03;91309.03;;;8.62;39.38
67377;BME280;54261;46.086;6.588;2022-11-23T14:15:17;91301.22;;;8.45;38.71
67377;BME280;54261;46.086;6.588;2022-11-23T14:20:42;91303.97;;;5.71;45.63
67377;BME280;54261;46.086;6.588;2022-11-23T14:31:54;91305.53;;;6.37;43.94
67377;BME280;54261;46.086;6.588;2022-11-23T14:42:40;91292.47;;;7.56;41.47
67377;BME280;54261;46.086;6.588;2022-11-23T14:47:43;91307.59;;;7.30;41.38
67377;BME280;54261;46.086;6.588;2022-11-23T14:52:45;91298.59;;;7.14;41.67
67377;BME280;54261;46.086;6.588;2022-11-23T14:57:48;91288.38;;;7.58;41.08
67377;BME280;54261;46.086;6.588;2022-11-23T15:02:54;91297.22;;;7.71;41.45
67377;BME280;54261;46.086;6.588;2022-11-23T15:08:38;91305.44;;;7.45;41.26
67377;BME280;54261;46.086;6.588;2022-11-23T15:18:45;91353.28;;;6.60;41.99
67377;BME280;54261;46.086;6.588;2022-11-23T15:23:49;91345.59;;;7.06;41.96
67377;BME280;54261;46.086;6.588;2022-11-23T15:28:51;91353.53;;;7.15;42.41
67377;BME280;54261;46.086;6.588;2022-11-23T15:33:57;91371.72;;;7.43;42.27
67377;BME280;54261;46.086;6.588;2022-11-23T15:39:01;91346.34;;;7.79;41.34
67377;BME280;54261;46.086;6.588;2022-11-23T15:44:24;91384.75;;;7.14;42.74
67377;BME280;54261;46.086;6.588;2022-11-23T15:49:27;91410.16;;;7.72;42.42
67377;BME280;54261;46.086;6.588;2022-11-23T15:54:36;91421.16;;;8.00;41.19
67377;BME280;54261;46.086;6.588;2022-11-23T15:59:44;91455.88;;;7.10;42.83
67377;BME280;54261;46.086;6.588;2022-11-23T16:04:49;91452.13;;;7.41;43.06
67377;BME280;54261;46.086;6.588;2022-11-23T16:20:33;91528.09;;;7.52;43.74
67377;BME280;54261;46.086;6.588;2022-11-23T16:25:35;91557.09;;;7.15;43.41
67377;BME280;54261;46.086;6.588;2022-11-23T16:30:40;91656.72;;;1.01;61.89
67377;BME280;54261;46.086;6.588;2022-11-23T16:35:42;91679.81;;;0.45;66.87
67377;BME280;54261;46.086;6.588;2022-11-23T16:40:46;91694.88;;;2.47;62.15
67377;BME280;54261;46.086;6.588;2022-11-23T16:45:51;91687.94;;;1.83;62.55
67377;BME280;54261;46.086;6.588;2022-11-23T16:50:55;91710.19;;;3.07;56.82
67377;BME280;54261;46.086;6.588;2022-11-23T16:56:00;91721.88;;;4.56;57.46
67377;BME280;54261;46.086;6.588;2022-11-23T17:01:03;91713.16;;;5.61;52.67
67377;BME280;54261;46.086;6.588;2022-11-23T17:06:05;91715.19;;;5.19;50.92
67377;BME280;54261;46.086;6.588;2022-11-23T17:11:28;91711.44;;;5.65;50.70
67377;BME280;54261;46.086;6.588;2022-11-23T17:16:30;91719.13;;;5.67;49.63
67377;BME280;54261;46.086;6.588;2022-11-23T17:21:32;91751.34;;;5.43;50.54
67377;BME280;54261;46.086;6.588;2022-11-23T17:26:39;91764.69;;;6.29;48.87
67377;BME280;54261;46.086;6.588;2022-11-23T17:31:42;91778.59;;;6.57;49.59
67377;BME280;54261;46.086;6.588;2022-11-23T17:36:48;91796.69;;;5.97;51.90
67377;BME280;54261;46.086;6.588;2022-11-23T17:41:52;91737.66;;;5.72;50.07
67377;BME280;54261;46.086;6.588;2022-11-23T17:46:56;91798.50;;;5.65;49.62
67377;BME280;54261;46.086;6.588;2022-11-23T17:52:00;91817.28;;;6.14;49.29
67377;BME280;54261;46.086;6.588;2022-11-23T17:57:02;91842.50;;;6.08;49.45
67377;BME280;54261;46.086;6.588;2022-11-23T18:02:04;91851.25;;;6.63;47.47
67377;BME280;54261;46.086;6.588;2022-11-23T18:07:13;91846.16;;;6.84;47.89
67377;BME280;54261;46.086;6.588;2022-11-23T18:12:15;91873.91;;;7.41;47.13
67377;BME280;54261;46.086;6.588;2022-11-23T18:17:18;91889.94;;;6.83;47.30
67377;BME280;54261;46.086;6.588;2022-11-23T18:22:23;91909.31;;;7.06;47.75
67377;BME280;54261;46.086;6.588;2022-11-23T18:27:25;91913.22;;;6.68;46.54
67377;BME280;54261;46.086;6.588;2022-11-23T18:32:27;91925.47;;;7.01;46.48
67377;BME280;54261;46.086;6.588;2022-11-23T18:37:29;91932.69;;;6.01;47.32
67377;BME280;54261;46.086;6.588;2022-11-23T18:42:31;91954.41;;;6.31;48.43
67377;BME280;54261;46.086;6.588;2022-11-23T18:47:33;91980.44;;;6.79;47.34
67377;BME280;54261;46.086;6.588;2022-11-23T18:52:35;91985.28;;;6.09;49.12
67377;BME280;54261;46.086;6.588;2022-11-23T18:57:37;92000.66;;;5.75;49.11
67377;BME280;54261;46.086;6.588;2022-11-23T19:02:40;92012.66;;;5.17;51.33
67377;BME280;54261;46.086;6.588;2022-11-23T19:07:42;92016.78;;;6.52;49.04
67377;BME280;54261;46.086;6.588;2022-11-23T19:12:45;92001.13;;;2.08;59.71
67377;BME280;54261;46.086;6.588;2022-11-23T19:17:47;92034.66;;;4.42;53.14
67377;BME280;54261;46.086;6.588;2022-11-23T19:22:50;92042.66;;;5.92;51.17
67377;BME280;54261;46.086;6.588;2022-11-23T19:27:52;92048.06;;;6.61;49.79
67377;BME280;54261;46.086;6.588;2022-11-23T19:32:54;92051.50;;;6.98;48.64
67377;BME280;54261;46.086;6.588;2022-11-23T19:37:57;92042.72;;;7.06;47.53
67377;BME280;54261;46.086;6.588;2022-11-23T19:42:59;92045.13;;;6.85;47.73
67377;BME280;54261;46.086;6.588;2022-11-23T19:48:01;92085.88;;;7.31;47.03
67377;BME280;54261;46.086;6.588;2022-11-23T19:53:04;92056.16;;;6.33;47.03
67377;BME280;54261;46.086;6.588;2022-11-23T19:58:13;92091.16;;;7.45;46.13
67377;BME280;54261;46.086;6.588;2022-11-23T20:03:16;92088.03;;;7.52;45.98
67377;BME280;54261;46.086;6.588;2022-11-23T20:08:18;92086.03;;;6.07;47.36
67377;BME280;54261;46.086;6.588;2022-11-23T20:13:20;92084.00;;;5.76;47.63
67377;BME280;54261;46.086;6.588;2022-11-23T20:18:23;92055.38;;;5.53;48.56
67377;BME280;54261;46.086;6.588;2022-11-23T20:23:30;92098.78;;;5.68;48.44
67377;BME280;54261;46.086;6.588;2022-11-23T20:28:32;92093.84;;;5.75;48.94
67377;BME280;54261;46.086;6.588;2022-11-23T20:33:35;92097.00;;;5.49;48.58
67377;BME280;54261;46.086;6.588;2022-11-23T20:38:38;92106.84;;;5.91;49.20
67377;BME280;54261;46.086;6.588;2022-11-23T20:43:41;92085.97;;;6.72;46.59
67377;BME280;54261;46.086;6.588;2022-11-23T20:48:44;92086.53;;;5.67;46.36
67377;BME280;54261;46.086;6.588;2022-11-23T20:53:48;92123.63;;;5.91;47.66
67377;BME280;54261;46.086;6.588;2022-11-23T20:58:56;92128.47;;;6.17;47.60
67377;BME280;54261;46.086;6.588;2022-11-23T21:04:01;92134.84;;;5.46;47.11
67377;BME280;54261;46.086;6.588;2022-11-23T21:09:03;92143.75;;;5.69;47.28
67377;BME280;54261;46.086;6.588;2022-11-23T21:14:10;92132.03;;;6.49;45.76
67377;BME280;54261;46.086;6.588;2022-11-23T21:19:19;92115.19;;;5.42;46.57
67377;BME280;54261;46.086;6.588;2022-11-23T21:24:22;92131.00;;;3.85;50.23
67377;BME280;54261;46.086;6.588;2022-11-23T21:29:24;92137.00;;;4.78;49.12
67377;BME280;54261;46.086;6.588;2022-11-23T21:34:28;92120.66;;;4.08;49.77
67377;BME280;54261;46.086;6.588;2022-11-23T21:39:30;92133.97;;;3.54;51.58
67377;BME280;54261;46.086;6.588;2022-11-23T21:44:32;92122.94;;;3.47;52.40
67377;BME280;54261;46.086;6.588;2022-11-23T21:49:34;92125.75;;;4.81;50.44
67377;BME280;54261;46.086;6.588;2022-11-23T21:54:36;92089.75;;;4.36;51.64
67377;BME280;54261;46.086;6.588;2022-11-23T21:59:39;92124.13;;;5.65;49.12
67377;BME280;54261;46.086;6.588;2022-11-23T22:04:41;92106.88;;;5.49;48.94
67377;BME280;54261;46.086;6.588;2022-11-23T22:09:43;92133.66;;;5.52;49.62
67377;BME280;54261;46.086;6.588;2022-11-23T22:14:44;92141.56;;;6.28;48.01
67377;BME280;54261;46.086;6.588;2022-11-23T22:19:47;92151.00;;;6.48;46.68
67377;BME280;54261;46.086;6.588;2022-11-23T22:24:50;92154.81;;;6.84;46.51
67377;BME280;54261;46.086;6.588;2022-11-23T22:29:51;92140.66;;;6.83;46.67
67377;BME280;54261;46.086;6.588;2022-11-23T22:34:53;92175.28;;;5.29;47.52
67377;BME280;54261;46.086;6.588;2022-11-23T22:39:55;92175.50;;;5.94;46.93
67377;BME280;54261;46.086;6.588;2022-11-23T22:44:57;92191.75;;;6.76;46.11
67377;BME280;54261;46.086;6.588;2022-11-23T22:49:59;92167.91;;;6.43;45.18
67377;BME280;54261;46.086;6.588;2022-11-23T22:55:02;92206.97;;;6.62;45.36
67377;BME280;54261;46.086;6.588;2022-11-23T23:00:04;92217.16;;;7.10;44.96
67377;BME280;54261;46.086;6.588;2022-11-23T23:05:11;92219.75;;;7.38;45.30
67377;BME280;54261;46.086;6.588;2022-11-23T23:10:13;92213.28;;;6.66;45.56
67377;BME280;54261;46.086;6.588;2022-11-23T23:15:15;92239.88;;;6.71;44.91
67377;BME280;54261;46.086;6.588;2022-11-23T23:20:17;92229.28;;;3.21;54.95
67377;BME280;54261;46.086;6.588;2022-11-23T23:25:19;92250.53;;;4.34;52.04
67377;BME280;54261;46.086;6.588;2022-11-23T23:30:21;92244.16;;;5.83;48.83
67377;BME280;54261;46.086;6.588;2022-11-23T23:35:23;92268.78;;;4.40;52.93
67377;BME280;54261;46.086;6.588;2022-11-23T23:40:24;92276.81;;;6.50;50.04
67377;BME280;54261;46.086;6.588;2022-11-23T23:45:26;92281.53;;;6.67;47.70
67377;BME280;54261;46.086;6.588;2022-11-23T23:50:28;92273.03;;;6.93;47.29
67377;BME280;54261;46.086;6.588;2022-11-23T23:55:30;92288.53;;;7.05;46.89
